sensor_id;sensor_type;location;lat;lon;timestamp;pressure;altitude;pressure_sealevel;temperature;humidity
8061;BME280;4073;42.626;25.386;2024-01-07T00:01:00;96013.72;;;11.49;100.00
8061;BME280;4073;42.626;25.386;2024-01-07T00:03:27;96015.13;;;11.47;100.00
8061;BME280;4073;42.626;25.386;2024-01-07T00:05:52;96005.81;;;11.44;100.00
8061;BME280;4073;42.626;25.386;2024-01-07T00:08:18;96000.97;;;11.46;100.00
8061;BME280;4073;42.626;25.386;2024-01-07T00:10:43;95994.19;;;11.49;100.00
8061;BME280;4073;42.626;25.386;2024-01-07T00:13:09;95973.69;;;11.44;100.00
8061;BME280;4073;42.626;25.386;2024-01-07T00:15:34;95986.00;;;11.45;100.00
8061;BME280;4073;42.626;25.386;2024-01-07T00:18:00;95983.78;;;11.47;100.00
8061;BME280;4073;42.626;25.386;2024-01-07T00:20:25;95988.69;;;11.45;100.00
8061;BME280;4073;42.626;25.386;2024-01-07T00:22:51;95999.38;;;11.45;100.00
8061;BME280;4073;42.626;25.386;2024-01-07T00:25:16;96000.97;;;11.46;100.00
8061;BME280;4073;42.626;25.386;2024-01-07T00:27:43;96000.16;;;11.46;100.00
8061;BME280;4073;42.626;25.386;2024-01-07T00:30:09;95998.34;;;11.55;100.00
8061;BME280;4073;42.626;25.386;2024-01-07T00:32:35;95997.84;;;11.53;100.00
8061;BME280;4073;42.626;25.386;2024-01-07T00:35:00;96005.56;;;11.54;100.00
8061;BME280;4073;42.626;25.386;2024-01-07T00:37:26;95999.00;;;11.60;100.00
8061;BME280;4073;42.626;25.386;2024-01-07T00:39:51;95988.03;;;11.62;100.00
8061;BME280;4073;42.626;25.386;2024-01-07T00:42:17;95965.41;;;11.54;100.00
8061;BME280;4073;42.626;25.386;2024-01-07T00:44:42;95955.59;;;11.63;100.00
8061;BME280;4073;42.626;25.386;2024-01-07T00:47:08;95957.16;;;11.64;100.00
8061;BME280;4073;42.626;25.386;2024-01-07T00:49:33;95942.06;;;11.68;100.00
8061;BME280;4073;42.626;25.386;2024-01-07T00:51:59;95961.28;;;11.70;100.00
8061;BME280;4073;42.626;25.386;2024-01-07T00:54:24;95949.03;;;11.69;100.00
8061;BME280;4073;42.626;25.386;2024-01-07T00:56:50;95954.69;;;11.68;100.00
8061;BME280;4073;42.626;25.386;2024-01-07T00:59:15;95922.25;;;11.69;100.00
8061;BME280;4073;42.626;25.386;2024-01-07T01:01:41;95935.44;;;11.66;100.00
8061;BME280;4073;42.626;25.386;2024-01-07T01:04:07;95893.13;;;11.46;100.00
8061;BME280;4073;42.626;25.386;2024-01-07T01:06:32;95922.38;;;11.64;100.00
8061;BME280;4073;42.626;25.386;2024-01-07T01:08:57;95928.34;;;11.61;100.00
8061;BME280;4073;42.626;25.386;2024-01-07T01:11:23;95925.47;;;11.58;100.00
8061;BME280;4073;42.626;25.386;2024-01-07T01:13:48;95916.03;;;11.60;100.00
8061;BME280;4073;42.626;25.386;2024-01-07T01:16:14;95926.72;;;11.60;100.00
8061;BME280;4073;42.626;25.386;2024-01-07T01:18:40;95920.50;;;11.65;100.00
8061;BME280;4073;42.626;25.386;2024-01-07T01:21:05;95913.56;;;11.64;100.00
8061;BME280;4073;42.626;25.386;2024-01-07T01:23:31;95906.81;;;11.66;100.00
8061;BME280;4073;42.626;25.386;2024-01-07T01:25:56;95892.31;;;11.67;100.00
8061;BME280;4073;42.626;25.386;2024-01-07T01:28:22;95888.06;;;11.66;100.00
8061;BME280;4073;42.626;25.386;2024-01-07T01:30:47;95875.28;;;11.63;100.00
8061;BME280;4073;42.626;25.386;2024-01-07T01:33:13;95878.84;;;11.59;100.00
8061;BME280;4073;42.626;25.386;2024-01-07T01:35:38;95858.13;;;11.64;100.00
8061;BME280;4073;42.626;25.386;2024-01-07T01:38:04;95855.44;;;11.64;100.00
8061;BME280;4073;42.626;25.386;2024-01-07T01:40:29;95850.75;;;11.70;100.00
8061;BME280;4073;42.626;25.386;2024-01-07T01:42:55;95855.16;;;11.74;100.00
8061;BME280;4073;42.626;25.386;2024-01-07T01:45:20;95859.41;;;11.75;100.00
8061;BME280;4073;42.626;25.386;2024-01-07T01:47:46;95816.91;;;11.74;100.00
8061;BME280;4073;42.626;25.386;2024-01-07T01:50:13;95816.28;;;11.77;100.00
8061;BME280;4073;42.626;25.386;2024-01-07T01:52:39;95821.31;;;11.78;100.00
8061;BME280;4073;42.626;25.386;2024-01-07T01:55:04;95815.34;;;11.81;100.00
8061;BME280;4073;42.626;25.386;2024-01-07T01:57:33;95807.94;;;11.87;100.00
8061;BME280;4073;42.626;25.386;2024-01-07T02:00:05;95792.84;;;11.82;100.00
8061;BME280;4073;42.626;25.386;2024-01-07T02:02:32;95811.25;;;11.84;100.00
8061;BME280;4073;42.626;25.386;2024-01-07T02:05:00;95805.25;;;11.78;100.00
8061;BME280;4073;42.626;25.386;2024-01-07T02:07:27;95803.34;;;11.70;100.00
8061;BME280;4073;42.626;25.386;2024-01-07T02:09:53;95783.97;;;11.65;100.00
8061;BME280;4073;42.626;25.386;2024-01-07T02:12:19;95774.47;;;11.59;100.00
8061;BME280;4073;42.626;25.386;2024-01-07T02:14:44;95775.09;;;11.56;100.00
8061;BME280;4073;42.626;25.386;2024-01-07T02:17:10;95781.56;;;11.55;100.00
8061;BME280;4073;42.626;25.386;2024-01-07T02:19:35;95776.66;;;11.57;100.00
8061;BME280;4073;42.626;25.386;2024-01-07T02:22:01;95782.19;;;11.60;100.00
8061;BME280;4073;42.626;25.386;2024-01-07T02:24:26;95774.16;;;11.60;100.00
8061;BME280;4073;42.626;25.386;2024-01-07T02:26:52;95762.06;;;11.63;100.00
8061;BME280;4073;42.626;25.386;2024-01-07T02:29:17;95763.34;;;11.65;100.00
8061;BME280;4073;42.626;25.386;2024-01-07T02:31:43;95769.16;;;11.67;100.00
8061;BME280;4073;42.626;25.386;2024-01-07T02:34:09;95753.28;;;11.71;100.00
8061;BME280;4073;42.626;25.386;2024-01-07T02:36:36;95736.56;;;11.65;100.00
8061;BME280;4073;42.626;25.386;2024-01-07T02:39:01;95735.16;;;11.68;100.00
8061;BME280;4073;42.626;25.386;2024-01-07T02:41:27;95747.47;;;11.77;100.00
8061;BME280;4073;42.626;25.386;2024-01-07T02:43:53;95731.09;;;11.79;100.00
8061;BME280;4073;42.626;25.386;2024-01-07T02:46:19;95718.19;;;11.72;100.00
8061;BME280;4073;42.626;25.386;2024-01-07T02:48:45;95711.53;;;11.78;100.00
8061;BME280;4073;42.626;25.386;2024-01-07T02:51:10;95717.88;;;11.82;100.00
8061;BME280;4073;42.626;25.386;2024-01-07T02:53:36;95708.72;;;11.83;100.00
8061;BME280;4073;42.626;25.386;2024-01-07T02:56:01;95704.31;;;11.79;100.00
8061;BME280;4073;42.626;25.386;2024-01-07T02:58:27;95710.16;;;11.81;100.00
8061;BME280;4073;42.626;25.386;2024-01-07T03:00:52;95678.66;;;11.78;100.00
8061;BME280;4073;42.626;25.386;2024-01-07T03:03:18;95683.50;;;11.67;100.00
8061;BME280;4073;42.626;25.386;2024-01-07T03:05:43;95682.88;;;11.70;100.00
8061;BME280;4073;42.626;25.386;2024-01-07T03:08:09;95686.19;;;11.67;100.00
8061;BME280;4073;42.626;25.386;2024-01-07T03:10:34;95683.38;;;11.64;100.00
8061;BME280;4073;42.626;25.386;2024-01-07T03:13:00;95699.75;;;11.62;100.00
8061;BME280;4073;42.626;25.386;2024-01-07T03:15:26;95659.53;;;11.45;100.00
8061;BME280;4073;42.626;25.386;2024-01-07T03:17:51;95694.66;;;11.61;100.00
8061;BME280;4073;42.626;25.386;2024-01-07T03:20:17;95667.41;;;11.50;100.00
8061;BME280;4073;42.626;25.386;2024-01-07T03:22:42;95674.34;;;11.60;100.00
8061;BME280;4073;42.626;25.386;2024-01-07T03:25:08;95657.81;;;11.58;100.00
8061;BME280;4073;42.626;25.386;2024-01-07T03:27:33;95650.88;;;11.57;100.00
8061;BME280;4073;42.626;25.386;2024-01-07T03:29:59;95630.25;;;11.57;100.00
8061;BME280;4073;42.626;25.386;2024-01-07T03:32:24;95627.59;;;11.57;100.00
8061;BME280;4073;42.626;25.386;2024-01-07T03:34:50;95618.13;;;11.51;100.00
8061;BME280;4073;42.626;25.386;2024-01-07T03:37:15;95613.41;;;11.48;100.00
8061;BME280;4073;42.626;25.386;2024-01-07T03:39:43;95600.19;;;11.43;100.00
8061;BME280;4073;42.626;25.386;2024-01-07T03:42:09;95591.53;;;11.38;100.00
8061;BME280;4073;42.626;25.386;2024-01-07T03:44:37;95586.63;;;11.40;100.00
8061;BME280;4073;42.626;25.386;2024-01-07T03:47:04;95583.81;;;11.36;100.00
8061;BME280;4073;42.626;25.386;2024-01-07T03:49:30;95580.66;;;11.34;100.00
8061;BME280;4073;42.626;25.386;2024-01-07T03:51:55;95586.31;;;11.33;100.00
8061;BME280;4073;42.626;25.386;2024-01-07T03:54:21;95572.00;;;11.37;100.00
8061;BME280;4073;42.626;25.386;2024-01-07T03:56:46;95571.88;;;11.42;100.00
8061;BME280;4073;42.626;25.386;2024-01-07T03:59:12;95563.34;;;11.40;100.00
8061;BME280;4073;42.626;25.386;2024-01-07T04:01:37;95560.53;;;11.37;100.00
8061;BME280;4073;42.626;25.386;2024-01-07T04:04:03;95558.19;;;11.44;100.00
8061;BME280;4073;42.626;25.386;2024-01-07T04:06:28;95556.44;;;11.48;100.00
8061;BME280;4073;42.626;25.386;2024-01-07T04:08:54;95547.31;;;11.49;100.00
8061;BME280;4073;42.626;25.386;2024-01-07T04:11:20;95543.06;;;11.48;100.00
8061;BME280;4073;42.626;25.386;2024-01-07T04:13:45;95539.13;;;11.45;100.00
8061;BME280;4073;42.626;25.386;2024-01-07T04:16:18;95544.31;;;11.42;100.00
8061;BME280;4073;42.626;25.386;2024-01-07T04:18:44;95537.72;;;11.39;100.00
8061;BME280;4073;42.626;25.386;2024-01-07T04:21:10;95527.31;;;11.38;100.00
8061;BME280;4073;42.626;25.386;2024-01-07T04:23:36;95540.06;;;11.32;100.00
8061;BME280;4073;42.626;25.386;2024-01-07T04:26:01;95535.19;;;11.26;100.00
8061;BME280;4073;42.626;25.386;2024-01-07T04:28:27;95507.97;;;11.24;100.00
8061;BME280;4073;42.626;25.386;2024-01-07T04:30:52;95486.28;;;11.08;100.00
8061;BME280;4073;42.626;25.386;2024-01-07T04:33:18;95487.66;;;11.14;100.00
8061;BME280;4073;42.626;25.386;2024-01-07T04:35:43;95482.78;;;11.16;100.00
8061;BME280;4073;42.626;25.386;2024-01-07T04:38:09;95485.66;;;11.11;100.00
8061;BME280;4073;42.626;25.386;2024-01-07T04:40:34;95467.25;;;11.10;100.00
8061;BME280;4073;42.626;25.386;2024-01-07T04:43:00;95470.53;;;11.07;100.00
8061;BME280;4073;42.626;25.386;2024-01-07T04:45:25;95460.28;;;11.09;100.00
8061;BME280;4073;42.626;25.386;2024-01-07T04:47:51;95420.81;;;11.06;100.00
8061;BME280;4073;42.626;25.386;2024-01-07T04:50:16;95431.38;;;11.02;100.00
8061;BME280;4073;42.626;25.386;2024-01-07T04:52:45;95445.53;;;11.03;100.00
8061;BME280;4073;42.626;25.386;2024-01-07T04:55:11;95422.56;;;11.02;100.00
8061;BME280;4073;42.626;25.386;2024-01-07T04:57:37;95446.63;;;11.02;100.00
8061;BME280;4073;42.626;25.386;2024-01-07T05:00:03;95435.63;;;10.95;100.00
8061;BME280;4073;42.626;25.386;2024-01-07T05:02:29;95446.31;;;10.95;100.00
8061;BME280;4073;42.626;25.386;2024-01-07T05:04:54;95433.44;;;10.88;100.00
8061;BME280;4073;42.626;25.386;2024-01-07T05:07:20;95457.78;;;10.87;100.00
8061;BME280;4073;42.626;25.386;2024-01-07T05:09:46;95477.94;;;10.84;100.00
8061;BME280;4073;42.626;25.386;2024-01-07T05:12:11;95463.44;;;10.85;100.00
8061;BME280;4073;42.626;25.386;2024-01-07T05:14:37;95478.06;;;10.79;100.00
8061;BME280;4073;42.626;25.386;2024-01-07T05:17:03;95481.84;;;10.78;100.00
8061;BME280;4073;42.626;25.386;2024-01-07T05:19:29;95479.00;;;10.75;100.00
8061;BME280;4073;42.626;25.386;2024-01-07T05:21:55;95482.28;;;10.72;100.00
8061;BME280;4073;42.626;25.386;2024-01-07T05:24:21;95482.59;;;10.70;100.00
8061;BME280;4073;42.626;25.386;2024-01-07T05:26:46;95490.78;;;10.65;100.00
8061;BME280;4073;42.626;25.386;2024-01-07T05:29:12;95489.22;;;10.64;100.00
8061;BME280;4073;42.626;25.386;2024-01-07T05:31:39;95506.63;;;10.62;100.00
8061;BME280;4073;42.626;25.386;2024-01-07T05:34:04;95492.66;;;10.56;100.00
8061;BME280;4073;42.626;25.386;2024-01-07T05:36:30;95481.81;;;10.52;100.00
8061;BME280;4073;42.626;25.386;2024-01-07T05:38:55;95477.09;;;10.49;100.00
8061;BME280;4073;42.626;25.386;2024-01-07T05:41:21;95483.69;;;10.52;100.00
8061;BME280;4073;42.626;25.386;2024-01-07T05:43:47;95495.78;;;10.49;100.00
8061;BME280;4073;42.626;25.386;2024-01-07T05:46:12;95476.25;;;10.40;100.00
8061;BME280;4073;42.626;25.386;2024-01-07T05:48:45;95478.00;;;10.36;100.00
8061;BME280;4073;42.626;25.386;2024-01-07T05:51:12;95480.19;;;10.34;100.00
8061;BME280;4073;42.626;25.386;2024-01-07T05:53:39;95485.06;;;10.32;100.00
8061;BME280;4073;42.626;25.386;2024-01-07T05:56:04;95483.31;;;10.28;100.00
8061;BME280;4073;42.626;25.386;2024-01-07T05:58:30;95486.59;;;10.25;100.00
8061;BME280;4073;42.626;25.386;2024-01-07T06:00:56;95503.22;;;10.22;100.00
8061;BME280;4073;42.626;25.386;2024-01-07T06:03:21;95504.94;;;10.18;100.00
8061;BME280;4073;42.626;25.386;2024-01-07T06:05:47;95506.34;;;10.15;100.00
8061;BME280;4073;42.626;25.386;2024-01-07T06:08:13;95482.28;;;10.07;100.00
8061;BME280;4073;42.626;25.386;2024-01-07T06:10:43;95490.25;;;9.98;100.00
8061;BME280;4073;42.626;25.386;2024-01-07T06:13:08;95482.19;;;9.90;100.00
8061;BME280;4073;42.626;25.386;2024-01-07T06:15:34;95474.81;;;9.87;100.00
8061;BME280;4073;42.626;25.386;2024-01-07T06:17:59;95454.03;;;9.75;100.00
8061;BME280;4073;42.626;25.386;2024-01-07T06:20:25;95449.28;;;9.72;100.00
8061;BME280;4073;42.626;25.386;2024-01-07T06:22:50;95431.84;;;9.66;100.00
8061;BME280;4073;42.626;25.386;2024-01-07T06:25:16;95451.91;;;9.64;100.00
8061;BME280;4073;42.626;25.386;2024-01-07T06:27:42;95456.59;;;9.58;100.00
8061;BME280;4073;42.626;25.386;2024-01-07T06:30:08;95465.09;;;9.60;100.00
8061;BME280;4073;42.626;25.386;2024-01-07T06:32:34;95448.78;;;9.62;100.00
8061;BME280;4073;42.626;25.386;2024-01-07T06:35:00;95461.47;;;9.56;100.00
8061;BME280;4073;42.626;25.386;2024-01-07T06:37:26;95483.59;;;9.57;100.00
8061;BME280;4073;42.626;25.386;2024-01-07T06:39:54;95484.69;;;9.56;100.00
8061;BME280;4073;42.626;25.386;2024-01-07T06:42:20;95493.16;;;9.58;100.00
8061;BME280;4073;42.626;25.386;2024-01-07T06:44:46;95489.41;;;9.59;100.00
8061;BME280;4073;42.626;25.386;2024-01-07T06:47:11;95497.56;;;9.62;100.00
8061;BME280;4073;42.626;25.386;2024-01-07T06:49:37;95507.03;;;9.68;100.00
8061;BME280;4073;42.626;25.386;2024-01-07T06:52:02;95503.75;;;9.71;100.00
8061;BME280;4073;42.626;25.386;2024-01-07T06:54:28;95507.53;;;9.70;100.00
8061;BME280;4073;42.626;25.386;2024-01-07T06:56:53;95494.44;;;9.91;100.00
8061;BME280;4073;42.626;25.386;2024-01-07T06:59:19;95493.66;;;10.86;100.00
8061;BME280;4073;42.626;25.386;2024-01-07T07:01:44;95517.38;;;11.81;100.00
8061;BME280;4073;42.626;25.386;2024-01-07T07:04:10;95511.69;;;11.91;100.00
8061;BME280;4073;42.626;25.386;2024-01-07T07:06:35;95512.50;;;11.49;100.00
8061;BME280;4073;42.626;25.386;2024-01-07T07:09:01;95521.47;;;11.02;100.00
8061;BME280;4073;42.626;25.386;2024-01-07T07:11:27;95517.19;;;10.58;100.00
8061;BME280;4073;42.626;25.386;2024-01-07T07:13:52;95528.75;;;10.36;100.00
8061;BME280;4073;42.626;25.386;2024-01-07T07:16:18;95517.41;;;10.31;100.00
8061;BME280;4073;42.626;25.386;2024-01-07T07:18:43;95540.69;;;10.39;100.00
8061;BME280;4073;42.626;25.386;2024-01-07T07:21:09;95543.09;;;10.57;100.00
8061;BME280;4073;42.626;25.386;2024-01-07T07:23:34;95558.78;;;11.07;100.00
8061;BME280;4073;42.626;25.386;2024-01-07T07:26:00;95552.19;;;11.81;100.00
8061;BME280;4073;42.626;25.386;2024-01-07T07:28:25;95552.84;;;13.81;100.00
8061;BME280;4073;42.626;25.386;2024-01-07T07:30:52;95554.19;;;15.52;100.00
8061;BME280;4073;42.626;25.386;2024-01-07T07:33:18;95561.53;;;17.15;95.05
8061;BME280;4073;42.626;25.386;2024-01-07T07:35:43;95580.41;;;18.61;83.15
8061;BME280;4073;42.626;25.386;2024-01-07T07:38:09;95587.75;;;19.31;75.07
8061;BME280;4073;42.626;25.386;2024-01-07T07:40:35;95609.63;;;20.01;71.57
8061;BME280;4073;42.626;25.386;2024-01-07T07:43:00;95614.78;;;19.80;68.82
8061;BME280;4073;42.626;25.386;2024-01-07T07:45:26;95616.66;;;19.24;71.73
8061;BME280;4073;42.626;25.386;2024-01-07T07:47:51;95607.00;;;19.75;71.56
8061;BME280;4073;42.626;25.386;2024-01-07T07:50:17;95613.06;;;20.24;67.19
8061;BME280;4073;42.626;25.386;2024-01-07T07:52:42;95607.13;;;21.32;63.44
8061;BME280;4073;42.626;25.386;2024-01-07T07:55:09;95596.44;;;20.66;62.47
8061;BME280;4073;42.626;25.386;2024-01-07T07:57:35;95590.56;;;19.64;67.76
8061;BME280;4073;42.626;25.386;2024-01-07T08:00:01;95586.16;;;19.04;70.68
8061;BME280;4073;42.626;25.386;2024-01-07T08:02:26;95573.56;;;19.67;69.58
8061;BME280;4073;42.626;25.386;2024-01-07T08:04:52;95570.66;;;20.86;63.66
8061;BME280;4073;42.626;25.386;2024-01-07T08:07:17;95583.25;;;21.58;57.87
8061;BME280;4073;42.626;25.386;2024-01-07T08:09:43;95572.16;;;20.10;62.80
8061;BME280;4073;42.626;25.386;2024-01-07T08:12:09;95563.31;;;18.79;71.28
8061;BME280;4073;42.626;25.386;2024-01-07T08:14:37;95565.69;;;17.44;79.01
8061;BME280;4073;42.626;25.386;2024-01-07T08:17:06;95566.81;;;16.19;87.47
8061;BME280;4073;42.626;25.386;2024-01-07T08:19:32;95559.38;;;15.33;96.20
8061;BME280;4073;42.626;25.386;2024-01-07T08:21:58;95568.41;;;14.65;100.00
8061;BME280;4073;42.626;25.386;2024-01-07T08:24:23;95570.22;;;13.96;100.00
8061;BME280;4073;42.626;25.386;2024-01-07T08:26:49;95571.53;;;13.37;100.00
8061;BME280;4073;42.626;25.386;2024-01-07T08:29:14;95565.00;;;13.26;100.00
8061;BME280;4073;42.626;25.386;2024-01-07T08:31:40;95554.69;;;14.01;100.00
8061;BME280;4073;42.626;25.386;2024-01-07T08:34:07;95558.09;;;15.94;100.00
8061;BME280;4073;42.626;25.386;2024-01-07T08:36:33;95562.91;;;17.40;87.78
8061;BME280;4073;42.626;25.386;2024-01-07T08:38:58;95567.13;;;18.33;79.56
8061;BME280;4073;42.626;25.386;2024-01-07T08:41:24;95557.34;;;17.87;80.55
8061;BME280;4073;42.626;25.386;2024-01-07T08:43:49;95547.56;;;16.94;86.54
8061;BME280;4073;42.626;25.386;2024-01-07T08:46:15;95548.41;;;16.36;91.64
8061;BME280;4073;42.626;25.386;2024-01-07T08:48:40;95541.53;;;15.80;96.83
8061;BME280;4073;42.626;25.386;2024-01-07T08:51:06;95542.19;;;15.49;100.00
8061;BME280;4073;42.626;25.386;2024-01-07T08:53:32;95537.63;;;15.38;100.00
8061;BME280;4073;42.626;25.386;2024-01-07T08:55:57;95544.94;;;15.37;100.00
8061;BME280;4073;42.626;25.386;2024-01-07T08:58:23;95537.19;;;15.24;100.00
8061;BME280;4073;42.626;25.386;2024-01-07T09:00:48;95531.38;;;14.98;100.00
8061;BME280;4073;42.626;25.386;2024-01-07T09:03:14;95542.06;;;14.46;100.00
8061;BME280;4073;42.626;25.386;2024-01-07T09:05:39;95541.06;;;14.18;100.00
8061;BME280;4073;42.626;25.386;2024-01-07T09:08:05;95529.75;;;13.80;100.00
8061;BME280;4073;42.626;25.386;2024-01-07T09:10:32;95525.63;;;13.83;100.00
8061;BME280;4073;42.626;25.386;2024-01-07T09:12:59;95542.44;;;13.92;100.00
8061;BME280;4073;42.626;25.386;2024-01-07T09:15:25;95546.59;;;13.57;100.00
8061;BME280;4073;42.626;25.386;2024-01-07T09:17:50;95515.56;;;13.47;100.00
8061;BME280;4073;42.626;25.386;2024-01-07T09:20:16;95506.66;;;13.67;100.00
8061;BME280;4073;42.626;25.386;2024-01-07T09:22:41;95505.75;;;13.96;100.00
8061;BME280;4073;42.626;25.386;2024-01-07T09:25:09;95494.81;;;14.13;100.00
8061;BME280;4073;42.626;25.386;2024-01-07T09:27:34;95505.94;;;14.23;100.00
8061;BME280;4073;42.626;25.386;2024-01-07T09:30:00;95500.22;;;13.80;100.00
8061;BME280;4073;42.626;25.386;2024-01-07T09:32:26;95496.63;;;13.44;100.00
8061;BME280;4073;42.626;25.386;2024-01-07T09:34:52;95492.94;;;13.16;100.00
8061;BME280;4073;42.626;25.386;2024-01-07T09:37:18;95501.47;;;13.09;100.00
8061;BME280;4073;42.626;25.386;2024-01-07T09:39:43;95494.50;;;13.37;100.00
8061;BME280;4073;42.626;25.386;2024-01-07T09:42:14;95498.75;;;13.71;100.00
8061;BME280;4073;42.626;25.386;2024-01-07T09:44:43;95502.00;;;13.76;100.00
8061;BME280;4073;42.626;25.386;2024-01-07T09:47:15;95489.81;;;13.79;100.00
8061;BME280;4073;42.626;25.386;2024-01-07T09:49:41;95476.56;;;14.06;100.00
8061;BME280;4073;42.626;25.386;2024-01-07T09:52:09;95472.25;;;14.38;100.00
8061;BME280;4073;42.626;25.386;2024-01-07T09:54:38;95475.28;;;15.36;100.00
8061;BME280;4073;42.626;25.386;2024-01-07T09:57:06;95478.09;;;15.83;100.00
8061;BME280;4073;42.626;25.386;2024-01-07T09:59:32;95483.34;;;17.19;94.66
8061;BME280;4073;42.626;25.386;2024-01-07T10:01:58;95481.22;;;18.49;85.43
8061;BME280;4073;42.626;25.386;2024-01-07T10:04:24;95483.81;;;19.17;78.45
8061;BME280;4073;42.626;25.386;2024-01-07T10:06:51;95485.41;;;18.69;79.38
8061;BME280;4073;42.626;25.386;2024-01-07T10:09:18;95483.72;;;17.74;84.02
8061;BME280;4073;42.626;25.386;2024-01-07T10:11:44;95482.03;;;16.94;90.18
8061;BME280;4073;42.626;25.386;2024-01-07T10:14:10;95461.78;;;16.69;94.64
8061;BME280;4073;42.626;25.386;2024-01-07T10:16:36;95472.91;;;16.67;93.95
8061;BME280;4073;42.626;25.386;2024-01-07T10:19:03;95474.22;;;17.08;92.50
8061;BME280;4073;42.626;25.386;2024-01-07T10:21:28;95459.25;;;17.29;87.58
8061;BME280;4073;42.626;25.386;2024-01-07T10:24:13;95450.84;;;16.96;90.86
8061;BME280;4073;42.626;25.386;2024-01-07T10:26:40;95435.34;;;16.28;93.78
8061;BME280;4073;42.626;25.386;2024-01-07T10:29:06;95442.03;;;16.03;99.34
8061;BME280;4073;42.626;25.386;2024-01-07T10:31:33;95425.72;;;16.42;97.91
8061;BME280;4073;42.626;25.386;2024-01-07T10:33:58;95431.34;;;16.87;94.21
8061;BME280;4073;42.626;25.386;2024-01-07T10:36:24;95428.06;;;16.78;94.04
8061;BME280;4073;42.626;25.386;2024-01-07T10:38:51;95426.03;;;16.41;96.45
8061;BME280;4073;42.626;25.386;2024-01-07T10:41:20;95400.28;;;15.81;100.00
8061;BME280;4073;42.626;25.386;2024-01-07T10:43:46;95419.22;;;15.69;100.00
8061;BME280;4073;42.626;25.386;2024-01-07T10:46:13;95410.00;;;15.55;100.00
8061;BME280;4073;42.626;25.386;2024-01-07T10:48:44;95403.00;;;15.38;100.00
8061;BME280;4073;42.626;25.386;2024-01-07T10:51:13;95398.66;;;15.49;100.00
8061;BME280;4073;42.626;25.386;2024-01-07T10:53:42;95385.75;;;15.55;100.00
8061;BME280;4073;42.626;25.386;2024-01-07T10:56:11;95400.16;;;15.46;100.00
8061;BME280;4073;42.626;25.386;2024-01-07T10:58:37;95404.78;;;15.46;100.00
8061;BME280;4073;42.626;25.386;2024-01-07T11:01:04;95379.03;;;15.21;100.00
8061;BME280;4073;42.626;25.386;2024-01-07T11:06:52;95396.56;;;14.75;100.00
8061;BME280;4073;42.626;25.386;2024-01-07T11:09:37;95389.88;;;14.69;100.00
8061;BME280;4073;42.626;25.386;2024-01-07T11:12:05;95392.25;;;14.59;100.00
8061;BME280;4073;42.626;25.386;2024-01-07T11:14:41;95391.13;;;14.60;100.00
8061;BME280;4073;42.626;25.386;2024-01-07T11:17:10;95395.59;;;14.68;100.00
8061;BME280;4073;42.626;25.386;2024-01-07T11:19:36;95387.00;;;14.90;100.00
8061;BME280;4073;42.626;25.386;2024-01-07T11:22:24;95381.00;;;15.08;100.00
8061;BME280;4073;42.626;25.386;2024-01-07T11:24:54;95391.75;;;15.20;100.00
8061;BME280;4073;42.626;25.386;2024-01-07T11:27:22;95381.84;;;15.24;100.00
8061;BME280;4073;42.626;25.386;2024-01-07T11:32:29;95374.94;;;15.11;100.00
8061;BME280;4073;42.626;25.386;2024-01-07T11:34:55;95378.13;;;15.01;100.00
8061;BME280;4073;42.626;25.386;2024-01-07T11:37:22;95368.31;;;14.81;100.00
8061;BME280;4073;42.626;25.386;2024-01-07T11:39:50;95366.84;;;14.56;100.00
8061;BME280;4073;42.626;25.386;2024-01-07T11:42:16;95371.09;;;14.45;100.00
8061;BME280;4073;42.626;25.386;2024-01-07T11:44:48;95367.44;;;14.38;100.00
8061;BME280;4073;42.626;25.386;2024-01-07T11:47:18;95371.66;;;14.39;100.00
8061;BME280;4073;42.626;25.386;2024-01-07T11:49:44;95371.66;;;14.51;100.00
8061;BME280;4073;42.626;25.386;2024-01-07T11:52:10;95361.72;;;14.79;100.00
8061;BME280;4073;42.626;25.386;2024-01-07T11:54:39;95355.25;;;14.95;100.00
8061;BME280;4073;42.626;25.386;2024-01-07T11:57:05;95358.75;;;14.96;100.00
8061;BME280;4073;42.626;25.386;2024-01-07T11:59:33;95366.16;;;14.99;100.00
8061;BME280;4073;42.626;25.386;2024-01-07T12:02:00;95368.16;;;15.02;100.00
8061;BME280;4073;42.626;25.386;2024-01-07T12:04:25;95377.38;;;14.89;100.00
8061;BME280;4073;42.626;25.386;2024-01-07T12:06:51;95353.94;;;14.89;100.00
8061;BME280;4073;42.626;25.386;2024-01-07T12:09:17;95360.50;;;15.04;100.00
8061;BME280;4073;42.626;25.386;2024-01-07T12:11:43;95365.00;;;15.00;100.00
8061;BME280;4073;42.626;25.386;2024-01-07T12:14:10;95363.13;;;14.88;100.00
8061;BME280;4073;42.626;25.386;2024-01-07T12:16:36;95356.38;;;14.67;100.00
8061;BME280;4073;42.626;25.386;2024-01-07T12:19:02;95362.81;;;14.50;100.00
8061;BME280;4073;42.626;25.386;2024-01-07T12:21:28;95370.66;;;14.19;100.00
8061;BME280;4073;42.626;25.386;2024-01-07T12:23:55;95362.81;;;14.02;100.00
8061;BME280;4073;42.626;25.386;2024-01-07T12:26:26;95352.31;;;13.85;100.00
8061;BME280;4073;42.626;25.386;2024-01-07T12:28:52;95360.03;;;13.87;100.00
8061;BME280;4073;42.626;25.386;2024-01-07T12:31:19;95361.38;;;13.81;100.00
8061;BME280;4073;42.626;25.386;2024-01-07T12:33:46;95345.78;;;13.62;100.00
8061;BME280;4073;42.626;25.386;2024-01-07T12:36:12;95358.41;;;13.62;100.00
8061;BME280;4073;42.626;25.386;2024-01-07T12:38:38;95354.97;;;13.61;100.00
8061;BME280;4073;42.626;25.386;2024-01-07T12:41:03;95358.00;;;13.72;100.00
8061;BME280;4073;42.626;25.386;2024-01-07T12:43:29;95353.53;;;13.88;100.00
8061;BME280;4073;42.626;25.386;2024-01-07T12:45:55;95357.88;;;14.04;100.00
8061;BME280;4073;42.626;25.386;2024-01-07T12:48:22;95345.59;;;14.15;100.00
8061;BME280;4073;42.626;25.386;2024-01-07T12:50:48;95340.53;;;14.14;100.00
8061;BME280;4073;42.626;25.386;2024-01-07T12:53:14;95355.22;;;14.28;100.00
8061;BME280;4073;42.626;25.386;2024-01-07T12:55:39;95356.59;;;14.22;100.00
8061;BME280;4073;42.626;25.386;2024-01-07T12:58:05;95361.97;;;14.22;100.00
8061;BME280;4073;42.626;25.386;2024-01-07T13:00:31;95363.50;;;14.23;100.00
8061;BME280;4073;42.626;25.386;2024-01-07T13:02:58;95365.72;;;14.09;100.00